Time;durP1;ratioP1;P1;durP2;ratioP2;P2;SDS_P1;SDS_P2;PMS_P1;PMS_P2;Temp;Humidity;BMP_temperature;BMP_pressure;BME280_temperature;BME280_humidity;BME280_pressure;Samples;Min_cycle;Max_cycle;Signal;HPM_P1;HPM_P2
2023/04/22 00:00:07;;;;;;;8.15;5.80;;;;;;;;;;6241822;23;20004;-78
2023/04/22 00:02:35;;;;;;;7.15;5.28;;;;;;;;;;6241253;23;20452;-78
2023/04/22 00:05:02;;;;;;;8.48;5.35;;;;;;;;;;6238745;23;20079;-77
2023/04/22 00:07:27;;;;;;;8.23;5.28;;;;;;;;;;6240403;23;20004;-78
2023/04/22 00:09:53;;;;;;;7.05;5.07;;;;;;;;;;6242740;23;20000;-78
2023/04/22 00:12:18;;;;;;;7.47;5.25;;;;;;;;;;6241459;23;20000;-78
2023/04/22 00:14:43;;;;;;;8.90;5.70;;;;;;;;;;6215081;23;20490;-79
2023/04/22 00:17:08;;;;;;;7.47;4.80;;;;;;;;;;6242627;23;20442;-78
2023/04/22 00:19:34;;;;;;;6.82;5.25;;;;;;;;;;6216916;23;20488;-79
2023/04/22 00:21:59;;;;;;;7.30;5.50;;;;;;;;;;6244615;23;20329;-77
2023/04/22 00:24:24;;;;;;;6.72;5.20;;;;;;;;;;6244265;23;20035;-79
2023/04/22 00:26:50;;;;;;;6.97;5.13;;;;;;;;;;6243190;23;20035;-78
2023/04/22 00:29:15;;;;;;;8.60;5.63;;;;;;;;;;6245138;23;20012;-79
2023/04/22 00:31:40;;;;;;;7.68;5.50;;;;;;;;;;6245158;22;20022;-78
2023/04/22 00:34:06;;;;;;;8.85;5.32;;;;;;;;;;6244949;23;20003;-78
2023/04/22 00:36:31;;;;;;;8.85;5.75;;;;;;;;;;6244494;23;20008;-78
2023/04/22 00:38:56;;;;;;;7.97;5.65;;;;;;;;;;6242704;23;20000;-79
2023/04/22 00:41:22;;;;;;;7.55;5.43;;;;;;;;;;6217306;23;20008;-77
2023/04/22 00:43:48;;;;;;;8.55;5.10;;;;;;;;;;6244003;23;20000;-77
2023/04/22 00:46:15;;;;;;;7.07;5.38;;;;;;;;;;6244973;23;20303;-79
2023/04/22 00:48:40;;;;;;;7.53;5.00;;;;;;;;;;6245463;22;20034;-78
2023/04/22 00:51:06;;;;;;;7.40;4.88;;;;;;;;;;6247915;23;20338;-78
2023/04/22 00:53:31;;;;;;;7.65;4.90;;;;;;;;;;6248607;23;20024;-79
2023/04/22 00:55:58;;;;;;;6.72;4.90;;;;;;;;;;6247928;23;20000;-78
2023/04/22 00:58:27;;;;;;;10.20;4.65;;;;;;;;;;6248208;23;20388;-78
2023/04/22 01:00:52;;;;;;;6.55;4.57;;;;;;;;;;6248271;23;20338;-78
2023/04/22 01:03:19;;;;;;;7.80;4.90;;;;;;;;;;6221838;23;20062;-78
2023/04/22 01:05:46;;;;;;;7.30;4.65;;;;;;;;;;6247693;23;20390;-79
2023/04/22 01:08:11;;;;;;;6.45;4.50;;;;;;;;;;6246983;23;20004;-79
2023/04/22 01:10:37;;;;;;;6.85;4.30;;;;;;;;;;6247970;23;20537;-78
2023/04/22 01:13:02;;;;;;;6.88;4.53;;;;;;;;;;6221326;23;20007;-79
2023/04/22 01:15:27;;;;;;;6.40;4.20;;;;;;;;;;6247972;23;19996;-78
2023/04/22 01:17:53;;;;;;;7.00;4.20;;;;;;;;;;6244625;23;20011;-78
2023/04/22 01:20:20;;;;;;;6.60;4.53;;;;;;;;;;6246436;23;20008;-78
2023/04/22 01:22:49;;;;;;;6.50;3.90;;;;;;;;;;6219900;23;20023;-77
2023/04/22 01:25:14;;;;;;;6.95;4.28;;;;;;;;;;6247414;23;20000;-78
2023/04/22 01:27:40;;;;;;;6.18;4.32;;;;;;;;;;6219488;23;20015;-79
2023/04/22 01:30:06;;;;;;;6.75;4.55;;;;;;;;;;6247741;23;20031;-78
2023/04/22 01:32:32;;;;;;;7.40;3.95;;;;;;;;;;6245894;22;20348;-79
2023/04/22 01:34:58;;;;;;;6.40;4.03;;;;;;;;;;6247469;23;20016;-79
2023/04/22 01:37:23;;;;;;;6.47;4.43;;;;;;;;;;6246893;23;20023;-78
2023/04/22 01:39:49;;;;;;;6.63;4.28;;;;;;;;;;6246879;23;20441;-79
2023/04/22 01:42:14;;;;;;;6.75;4.53;;;;;;;;;;6246358;23;20012;-79
2023/04/22 01:44:40;;;;;;;6.60;4.63;;;;;;;;;;6246877;23;20095;-78
2023/04/22 01:47:05;;;;;;;5.68;4.13;;;;;;;;;;6246255;23;20011;-78
2023/04/22 01:49:31;;;;;;;6.13;4.05;;;;;;;;;;6221238;23;20385;-78
2023/04/22 01:52:00;;;;;;;6.20;4.05;;;;;;;;;;6246855;23;20008;-78
2023/04/22 01:54:25;;;;;;;6.45;4.63;;;;;;;;;;6246723;23;20030;-78
2023/04/22 01:56:54;;;;;;;6.40;4.22;;;;;;;;;;6246849;23;20030;-78
2023/04/22 01:59:20;;;;;;;6.30;4.45;;;;;;;;;;6221156;23;20500;-78
2023/04/22 02:01:46;;;;;;;6.32;3.92;;;;;;;;;;6245551;23;20430;-77
2023/04/22 02:04:12;;;;;;;6.22;4.20;;;;;;;;;;6244632;23;20015;-77
2023/04/22 02:06:37;;;;;;;6.32;3.90;;;;;;;;;;6245516;23;20058;-78
2023/04/22 02:09:03;;;;;;;6.05;4.00;;;;;;;;;;6244542;23;20427;-78
2023/04/22 02:11:29;;;;;;;4.90;3.88;;;;;;;;;;6245830;23;20004;-79
2023/04/22 02:13:54;;;;;;;6.10;4.10;;;;;;;;;;6217399;23;20004;-78
2023/04/22 02:16:20;;;;;;;7.35;4.47;;;;;;;;;;6244244;23;20334;-77
2023/04/22 02:18:45;;;;;;;6.38;4.28;;;;;;;;;;6219147;23;20043;-78
2023/04/22 02:21:10;;;;;;;5.63;4.22;;;;;;;;;;6244993;23;20004;-78
2023/04/22 02:23:37;;;;;;;6.53;4.10;;;;;;;;;;6244376;23;20015;-78
2023/04/22 02:26:03;;;;;;;6.22;4.60;;;;;;;;;;6243739;23;20303;-78
2023/04/22 02:28:28;;;;;;;7.25;3.90;;;;;;;;;;6245260;23;20031;-79
2023/04/22 02:30:53;;;;;;;7.68;4.40;;;;;;;;;;6218407;23;20008;-78
2023/04/22 02:33:19;;;;;;;5.65;4.13;;;;;;;;;;6244268;23;20087;-79
2023/04/22 02:35:45;;;;;;;5.72;3.90;;;;;;;;;;6245549;23;19996;-77
2023/04/22 02:38:10;;;;;;;6.13;4.60;;;;;;;;;;6244067;23;20019;-77
2023/04/22 02:40:35;;;;;;;5.72;4.22;;;;;;;;;;6216183;23;20027;-78
2023/04/22 02:43:01;;;;;;;5.90;4.15;;;;;;;;;;6245183;23;20011;-78
2023/04/22 02:45:26;;;;;;;6.18;4.35;;;;;;;;;;6245317;23;20007;-78
2023/04/22 02:47:51;;;;;;;5.97;4.25;;;;;;;;;;6243630;23;20070;-79
2023/04/22 02:50:17;;;;;;;5.65;4.10;;;;;;;;;;6218961;23;20008;-78
2023/04/22 02:52:42;;;;;;;5.85;4.15;;;;;;;;;;6246292;23;20092;-79
2023/04/22 02:55:08;;;;;;;5.70;3.92;;;;;;;;;;6245550;23;20028;-77
2023/04/22 02:57:34;;;;;;;5.82;4.07;;;;;;;;;;6219048;23;20008;-79
2023/04/22 02:59:59;;;;;;;5.05;3.70;;;;;;;;;;6245585;23;20007;-79
2023/04/22 03:02:24;;;;;;;6.63;3.95;;;;;;;;;;6245451;23;20015;-78
2023/04/22 03:04:51;;;;;;;4.93;3.25;;;;;;;;;;6245865;23;20036;-78
2023/04/22 03:07:16;;;;;;;5.47;3.53;;;;;;;;;;6218402;23;20008;-78
2023/04/22 03:09:41;;;;;;;5.32;3.70;;;;;;;;;;6245755;23;20000;-79
2023/04/22 03:12:07;;;;;;;5.03;3.60;;;;;;;;;;6244149;23;20004;-79
2023/04/22 03:14:32;;;;;;;6.57;3.75;;;;;;;;;;6218956;23;19996;-78
2023/04/22 03:16:57;;;;;;;5.22;3.75;;;;;;;;;;6219225;23;20003;-78
2023/04/22 03:19:22;;;;;;;7.40;4.00;;;;;;;;;;6246113;23;20026;-78
2023/04/22 03:21:48;;;;;;;5.72;3.67;;;;;;;;;;6244868;23;20402;-78
2023/04/22 03:24:13;;;;;;;5.70;3.92;;;;;;;;;;6218594;23;20035;-79
2023/04/22 03:26:39;;;;;;;7.00;4.07;;;;;;;;;;6244312;23;20004;-78
2023/04/22 03:29:06;;;;;;;6.68;4.65;;;;;;;;;;6245073;23;20004;-78
2023/04/22 03:31:31;;;;;;;6.28;4.30;;;;;;;;;;6243726;22;20015;-77
2023/04/22 03:33:56;;;;;;;6.78;4.38;;;;;;;;;;6243543;23;20326;-78
2023/04/22 03:36:22;;;;;;;5.80;4.20;;;;;;;;;;6241796;23;20330;-78
2023/04/22 03:38:47;;;;;;;6.55;4.43;;;;;;;;;;6243281;23;20438;-77
2023/04/22 03:41:12;;;;;;;5.90;4.00;;;;;;;;;;6215641;23;20015;-79
2023/04/22 03:43:38;;;;;;;5.88;4.00;;;;;;;;;;6218310;23;20525;-79
2023/04/22 03:46:03;;;;;;;5.60;3.97;;;;;;;;;;6244437;23;20441;-78
2023/04/22 03:48:33;;;;;;;5.53;4.15;;;;;;;;;;6217479;23;20004;-78
2023/04/22 03:50:59;;;;;;;6.28;3.95;;;;;;;;;;6217576;23;20426;-78
2023/04/22 03:53:24;;;;;;;5.55;3.90;;;;;;;;;;6244762;23;20000;-78
2023/04/22 03:55:50;;;;;;;6.25;4.07;;;;;;;;;;6216844;23;19996;-78
2023/04/22 03:58:15;;;;;;;6.30;4.45;;;;;;;;;;6244503;23;20008;-79
2023/04/22 04:00:40;;;;;;;7.85;4.35;;;;;;;;;;6245061;23;20401;-78
2023/04/22 04:03:05;;;;;;;6.03;4.22;;;;;;;;;;6245023;23;20378;-78
2023/04/22 04:05:31;;;;;;;6.78;4.53;;;;;;;;;;6245258;23;20080;-78
2023/04/22 04:07:56;;;;;;;6.07;4.65;;;;;;;;;;6244216;23;20031;-78
2023/04/22 04:10:21;;;;;;;7.32;5.20;;;;;;;;;;6215611;23;20004;-77
2023/04/22 04:12:47;;;;;;;5.85;4.43;;;;;;;;;;6243816;23;20083;-78
2023/04/22 04:15:12;;;;;;;8.82;4.60;;;;;;;;;;6242769;23;20395;-77
2023/04/22 04:17:37;;;;;;;6.35;4.13;;;;;;;;;;6217899;23;20315;-79
2023/04/22 04:20:03;;;;;;;6.55;4.80;;;;;;;;;;6192331;23;20014;-77
2023/04/22 04:22:28;;;;;;;5.97;4.40;;;;;;;;;;6216436;23;20043;-78
2023/04/22 04:24:54;;;;;;;5.53;4.28;;;;;;;;;;6241892;23;20003;-78
2023/04/22 04:27:22;;;;;;;6.00;4.65;;;;;;;;;;6243241;23;20000;-78
2023/04/22 04:29:48;;;;;;;6.13;4.50;;;;;;;;;;6216477;23;20011;-78
2023/04/22 04:32:13;;;;;;;8.27;5.30;;;;;;;;;;6243801;22;20008;-78
2023/04/22 04:34:39;;;;;;;6.97;4.63;;;;;;;;;;6244578;23;20031;-78
2023/04/22 04:37:04;;;;;;;7.22;4.70;;;;;;;;;;6243835;23;20034;-77
2023/04/22 04:39:30;;;;;;;6.25;4.60;;;;;;;;;;6215801;23;20334;-78
2023/04/22 04:41:57;;;;;;;6.82;4.63;;;;;;;;;;6243491;23;20047;-78
2023/04/22 04:44:23;;;;;;;6.63;4.72;;;;;;;;;;6216762;23;20079;-78
2023/04/22 04:46:49;;;;;;;6.97;4.88;;;;;;;;;;6244748;23;20086;-78
2023/04/22 04:49:15;;;;;;;6.20;4.57;;;;;;;;;;6243402;23;20464;-78
2023/04/22 04:51:41;;;;;;;6.65;4.90;;;;;;;;;;6244283;23;20058;-77
2023/04/22 04:54:06;;;;;;;6.63;4.70;;;;;;;;;;6214910;23;20004;-78
2023/04/22 04:56:33;;;;;;;8.05;5.07;;;;;;;;;;6243255;23;20367;-78
2023/04/22 04:58:58;;;;;;;6.07;4.43;;;;;;;;;;6243794;23;20011;-78
2023/04/22 05:01:24;;;;;;;7.13;4.80;;;;;;;;;;6216784;23;20012;-77
2023/04/22 05:03:49;;;;;;;7.10;5.28;;;;;;;;;;6218328;23;20343;-79
2023/04/22 05:06:14;;;;;;;7.43;5.20;;;;;;;;;;6244423;23;20343;-78
2023/04/22 05:08:40;;;;;;;6.57;5.03;;;;;;;;;;6243977;23;20418;-76
2023/04/22 05:11:05;;;;;;;7.40;5.70;;;;;;;;;;6216451;23;20090;-79
2023/04/22 05:13:30;;;;;;;7.32;5.45;;;;;;;;;;6216284;23;20038;-78
2023/04/22 05:15:56;;;;;;;7.93;6.00;;;;;;;;;;6216218;23;20006;-77
2023/04/22 05:18:21;;;;;;;8.70;5.60;;;;;;;;;;6215767;23;20087;-78
2023/04/22 05:20:46;;;;;;;8.32;5.28;;;;;;;;;;6214933;23;20004;-78
2023/04/22 05:23:12;;;;;;;8.43;5.50;;;;;;;;;;6242788;23;20004;-77
2023/04/22 05:25:37;;;;;;;8.73;5.50;;;;;;;;;;6243033;23;20422;-77
2023/04/22 05:28:03;;;;;;;7.13;5.25;;;;;;;;;;6241010;23;20008;-77
2023/04/22 05:30:28;;;;;;;8.10;5.70;;;;;;;;;;6241714;22;20004;-77
2023/04/22 05:32:54;;;;;;;8.23;5.88;;;;;;;;;;6214580;23;20008;-78
2023/04/22 05:35:19;;;;;;;8.68;6.32;;;;;;;;;;6215329;23;20011;-79
2023/04/22 05:37:44;;;;;;;9.35;6.38;;;;;;;;;;6241796;23;20039;-78
2023/04/22 05:40:10;;;;;;;8.35;6.30;;;;;;;;;;6243663;23;20015;-78
2023/04/22 05:42:35;;;;;;;9.70;6.47;;;;;;;;;;6243089;23;20194;-78
2023/04/22 05:45:00;;;;;;;8.48;6.30;;;;;;;;;;6244031;23;20009;-78
2023/04/22 05:47:26;;;;;;;8.13;6.15;;;;;;;;;;6243815;23;20004;-78
2023/04/22 05:49:51;;;;;;;9.02;6.38;;;;;;;;;;6215112;23;20018;-78
2023/04/22 05:52:17;;;;;;;8.70;5.78;;;;;;;;;;6215561;23;20042;-78
2023/04/22 05:54:43;;;;;;;8.88;6.78;;;;;;;;;;6216039;23;20004;-78
2023/04/22 05:57:08;;;;;;;7.10;5.28;;;;;;;;;;6243637;23;20007;-78
2023/04/22 05:59:33;;;;;;;9.35;6.18;;;;;;;;;;6244375;23;20474;-77
2023/04/22 06:01:59;;;;;;;9.30;6.25;;;;;;;;;;6217898;23;20015;-78
2023/04/22 06:04:24;;;;;;;11.32;7.18;;;;;;;;;;6241684;23;20307;-77
2023/04/22 06:06:52;;;;;;;11.68;8.05;;;;;;;;;;6243054;23;20008;-78
2023/04/22 06:09:18;;;;;;;10.73;7.57;;;;;;;;;;6244931;23;20012;-78
2023/04/22 06:11:43;;;;;;;10.45;7.60;;;;;;;;;;6217174;23;20374;-78
2023/04/22 06:14:08;;;;;;;10.95;7.97;;;;;;;;;;6244478;23;20004;-78
2023/04/22 06:16:34;;;;;;;11.50;8.25;;;;;;;;;;6215963;23;20079;-77
2023/04/22 06:18:59;;;;;;;9.95;7.63;;;;;;;;;;6213582;23;20008;-78
2023/04/22 06:21:25;;;;;;;10.85;8.90;;;;;;;;;;6214097;23;20046;-78
2023/04/22 06:23:50;;;;;;;10.98;8.63;;;;;;;;;;6216375;23;20007;-76
2023/04/22 06:26:16;;;;;;;12.23;9.10;;;;;;;;;;6240770;23;20035;-77
2023/04/22 06:28:41;;;;;;;12.98;9.85;;;;;;;;;;6242248;23;20054;-78
2023/04/22 06:31:07;;;;;;;12.20;9.65;;;;;;;;;;6214720;23;20018;-77
2023/04/22 06:33:32;;;;;;;14.65;10.25;;;;;;;;;;6240078;23;20445;-78
2023/04/22 06:35:58;;;;;;;13.38;10.15;;;;;;;;;;6241028;23;19996;-79
2023/04/22 06:38:23;;;;;;;15.35;10.27;;;;;;;;;;6241927;23;20008;-79
2023/04/22 06:40:48;;;;;;;13.43;10.60;;;;;;;;;;6241806;23;20004;-77
2023/04/22 06:43:14;;;;;;;14.82;11.30;;;;;;;;;;6240516;23;20043;-77
2023/04/22 06:45:39;;;;;;;14.77;11.07;;;;;;;;;;6243144;23;20027;-79
2023/04/22 06:48:05;;;;;;;14.02;11.45;;;;;;;;;;6214562;23;20477;-78
2023/04/22 06:50:30;;;;;;;16.85;11.82;;;;;;;;;;6241723;23;20000;-78
2023/04/22 06:52:55;;;;;;;16.42;12.10;;;;;;;;;;6242463;23;20015;-78
2023/04/22 06:55:21;;;;;;;15.20;11.55;;;;;;;;;;6239714;23;20004;-78
2023/04/22 06:57:46;;;;;;;16.52;11.50;;;;;;;;;;6240427;23;20008;-76
2023/04/22 07:00:12;;;;;;;15.63;11.60;;;;;;;;;;6215250;23;20008;-75
2023/04/22 07:02:37;;;;;;;14.45;11.20;;;;;;;;;;6243523;23;20008;-75
2023/04/22 07:05:02;;;;;;;14.50;10.82;;;;;;;;;;6218860;23;20039;-76
2023/04/22 07:07:28;;;;;;;15.02;10.65;;;;;;;;;;6245065;23;20403;-75
2023/04/22 07:09:53;;;;;;;14.00;9.88;;;;;;;;;;6245317;23;20012;-75
2023/04/22 07:12:19;;;;;;;14.63;10.93;;;;;;;;;;6243734;23;20079;-76
2023/04/22 07:14:44;;;;;;;14.48;11.15;;;;;;;;;;6215739;23;20030;-76
2023/04/22 07:17:11;;;;;;;14.48;11.07;;;;;;;;;;6245286;23;20000;-75
2023/04/22 07:19:36;;;;;;;13.50;10.55;;;;;;;;;;6218098;23;20011;-75
2023/04/22 07:22:02;;;;;;;16.50;10.77;;;;;;;;;;6218237;23;20050;-75
2023/04/22 07:24:28;;;;;;;15.60;10.57;;;;;;;;;;6214880;23;20083;-75
2023/04/22 07:26:53;;;;;;;14.38;10.10;;;;;;;;;;6241402;23;20036;-75
2023/04/22 07:29:18;;;;;;;13.98;10.27;;;;;;;;;;6243645;23;20035;-75
2023/04/22 07:31:44;;;;;;;12.93;9.88;;;;;;;;;;6191640;23;20016;-75
2023/04/22 07:34:09;;;;;;;14.30;10.73;;;;;;;;;;6216096;23;20431;-76
2023/04/22 07:36:35;;;;;;;15.48;11.15;;;;;;;;;;6241824;23;20011;-76
2023/04/22 07:39:01;;;;;;;14.85;10.88;;;;;;;;;;6214422;23;20011;-75
2023/04/22 07:41:26;;;;;;;18.05;11.40;;;;;;;;;;6216498;23;20115;-76
2023/04/22 07:43:51;;;;;;;16.00;11.18;;;;;;;;;;6216663;23;20004;-76
2023/04/22 07:46:17;;;;;;;14.00;10.73;;;;;;;;;;6213703;23;20011;-76
2023/04/22 07:48:42;;;;;;;16.45;10.75;;;;;;;;;;6241938;23;19999;-76
2023/04/22 07:51:07;;;;;;;13.20;10.18;;;;;;;;;;6243534;23;20330;-75
2023/04/22 07:53:33;;;;;;;15.18;10.95;;;;;;;;;;6215202;23;20107;-76
2023/04/22 07:56:00;;;;;;;14.35;11.13;;;;;;;;;;6216780;23;20015;-76
2023/04/22 07:58:26;;;;;;;15.77;11.02;;;;;;;;;;6242337;23;20019;-75
2023/04/22 08:00:51;;;;;;;15.38;11.15;;;;;;;;;;6216342;23;20035;-75
2023/04/22 08:03:17;;;;;;;16.25;11.68;;;;;;;;;;6241201;23;20007;-76
2023/04/22 08:05:42;;;;;;;15.68;10.77;;;;;;;;;;6239822;23;20426;-75
2023/04/22 08:08:07;;;;;;;15.30;11.18;;;;;;;;;;6242785;23;20008;-75
2023/04/22 08:10:33;;;;;;;17.13;11.07;;;;;;;;;;6242395;23;20015;-75
2023/04/22 08:12:58;;;;;;;14.10;10.50;;;;;;;;;;6241755;23;20601;-76
2023/04/22 08:15:24;;;;;;;14.75;10.68;;;;;;;;;;6190138;23;20334;-75
2023/04/22 08:17:50;;;;;;;12.88;10.15;;;;;;;;;;6243371;23;20007;-75
2023/04/22 08:20:16;;;;;;;14.38;10.52;;;;;;;;;;6241518;23;20000;-75
2023/04/22 08:22:42;;;;;;;14.90;11.07;;;;;;;;;;6242228;23;20004;-75
2023/04/22 08:25:08;;;;;;;13.32;10.65;;;;;;;;;;6213677;23;20422;-77
2023/04/22 08:27:34;;;;;;;19.25;12.18;;;;;;;;;;6217314;23;20434;-76
2023/04/22 08:29:59;;;;;;;15.77;11.27;;;;;;;;;;6242894;23;20008;-76
2023/04/22 08:32:25;;;;;;;13.38;10.25;;;;;;;;;;6243024;22;20179;-76
2023/04/22 08:34:50;;;;;;;15.55;10.90;;;;;;;;;;6240924;23;20007;-76
2023/04/22 08:37:16;;;;;;;13.75;10.10;;;;;;;;;;6243033;23;20007;-76
2023/04/22 08:39:41;;;;;;;13.75;10.25;;;;;;;;;;6216703;23;20755;-76
2023/04/22 08:42:07;;;;;;;12.18;9.25;;;;;;;;;;6242469;23;20421;-76
2023/04/22 08:44:34;;;;;;;12.45;8.98;;;;;;;;;;6244100;23;20058;-76
2023/04/22 08:47:00;;;;;;;14.07;9.77;;;;;;;;;;6217720;23;20012;-76
2023/04/22 08:49:27;;;;;;;12.27;9.85;;;;;;;;;;6216825;23;20419;-76
2023/04/22 08:51:54;;;;;;;13.05;9.73;;;;;;;;;;6243401;23;20091;-76
2023/04/22 08:54:20;;;;;;;11.30;9.05;;;;;;;;;;6242676;23;20078;-76
2023/04/22 08:56:48;;;;;;;12.00;8.98;;;;;;;;;;6216830;23;20028;-76
2023/04/22 08:59:15;;;;;;;10.93;8.20;;;;;;;;;;6244197;23;20079;-76
2023/04/22 09:01:41;;;;;;;12.05;8.18;;;;;;;;;;6245036;23;20000;-76
2023/04/22 09:11:52;;;;;;;11.00;7.50;;;;;;;;;;6158206;22;20012;-76
2023/04/22 09:14:18;;;;;;;10.43;7.70;;;;;;;;;;6247706;23;20046;-75
2023/04/22 09:16:47;;;;;;;12.95;8.80;;;;;;;;;;6273754;22;19992;-75
2023/04/22 09:19:13;;;;;;;11.23;8.15;;;;;;;;;;6274399;22;20011;-75
2023/04/22 09:21:40;;;;;;;8.65;6.93;;;;;;;;;;6249367;22;20332;-76
2023/04/22 09:24:10;;;;;;;10.10;6.88;;;;;;;;;;6246249;23;19995;-75
2023/04/22 09:26:40;;;;;;;11.88;8.18;;;;;;;;;;6273543;22;19988;-75
2023/04/22 09:29:08;;;;;;;11.10;7.95;;;;;;;;;;6247866;22;20027;-76
2023/04/22 09:31:34;;;;;;;9.85;8.07;;;;;;;;;;6248835;23;20066;-76
2023/04/22 09:34:00;;;;;;;9.93;7.70;;;;;;;;;;6246526;22;20003;-75
2023/04/22 09:36:32;;;;;;;11.93;7.50;;;;;;;;;;6269179;23;20016;-75
2023/04/22 09:39:03;;;;;;;11.23;7.93;;;;;;;;;;6267859;23;20004;-75
2023/04/22 09:41:40;;;;;;;9.82;7.55;;;;;;;;;;6245957;23;20012;-76
2023/04/22 09:44:12;;;;;;;10.80;7.63;;;;;;;;;;6272939;22;19989;-77
2023/04/22 09:46:41;;;;;;;10.30;7.88;;;;;;;;;;6270547;22;20018;-75
2023/04/22 09:49:06;;;;;;;10.55;7.43;;;;;;;;;;6272117;22;19996;-75
2023/04/22 09:51:33;;;;;;;10.85;7.90;;;;;;;;;;6272404;22;20027;-75
2023/04/22 09:54:05;;;;;;;10.02;7.13;;;;;;;;;;6274624;23;20034;-76
2023/04/22 09:56:48;;;;;;;10.75;7.10;;;;;;;;;;6248588;23;20027;-75
2023/04/22 09:59:24;;;;;;;9.30;7.10;;;;;;;;;;6273399;22;19999;-75
2023/04/22 10:01:52;;;;;;;10.65;7.35;;;;;;;;;;6248513;22;19993;-75
2023/04/22 10:04:24;;;;;;;9.75;7.45;;;;;;;;;;6249215;22;20016;-75
2023/04/22 10:06:50;;;;;;;9.80;7.47;;;;;;;;;;6249629;23;20007;-76
2023/04/22 10:09:20;;;;;;;9.40;7.25;;;;;;;;;;6275687;22;19998;-75
2023/04/22 10:11:46;;;;;;;10.57;7.43;;;;;;;;;;6275748;22;19992;-75
2023/04/22 10:14:13;;;;;;;8.95;6.57;;;;;;;;;;6275685;22;20000;-75
2023/04/22 10:16:40;;;;;;;9.15;7.07;;;;;;;;;;6275461;22;20014;-75
2023/04/22 10:19:09;;;;;;;8.10;5.82;;;;;;;;;;6274963;22;20032;-75
2023/04/22 10:21:36;;;;;;;12.70;6.70;;;;;;;;;;6275727;22;19988;-76
2023/04/22 10:24:02;;;;;;;8.80;6.53;;;;;;;;;;6248979;22;19996;-75
2023/04/22 10:26:58;;;;;;;9.13;6.65;;;;;;;;;;6275596;22;19996;-75
2023/04/22 10:29:26;;;;;;;12.73;6.82;;;;;;;;;;6274636;22;20043;-75
2023/04/22 10:32:18;;;;;;;8.05;5.93;;;;;;;;;;6249362;23;20052;-75
2023/04/22 10:34:48;;;;;;;9.53;6.43;;;;;;;;;;6233776;22;19992;-75
2023/04/22 10:37:17;;;;;;;8.90;6.40;;;;;;;;;;6249691;22;20003;-75
2023/04/22 10:40:10;;;;;;;10.27;6.38;;;;;;;;;;6275219;22;19988;-75
2023/04/22 10:42:38;;;;;;;9.05;6.00;;;;;;;;;;6275718;22;20008;-75
2023/04/22 10:45:04;;;;;;;8.18;5.70;;;;;;;;;;6249617;22;20007;-76
2023/04/22 10:47:34;;;;;;;8.35;5.75;;;;;;;;;;6275731;22;20028;-76
2023/04/22 10:50:20;;;;;;;11.98;6.80;;;;;;;;;;6275611;22;20036;-75
2023/04/22 10:52:57;;;;;;;10.05;6.75;;;;;;;;;;6274159;22;19992;-75
2023/04/22 10:55:23;;;;;;;9.38;6.30;;;;;;;;;;6275381;22;19992;-75
2023/04/22 10:57:51;;;;;;;7.70;5.65;;;;;;;;;;6275535;22;20008;-75
2023/04/22 11:00:30;;;;;;;9.05;6.40;;;;;;;;;;6249024;22;20008;-75
2023/04/22 11:03:04;;;;;;;8.52;5.60;;;;;;;;;;6275353;22;20002;-75
2023/04/22 11:05:31;;;;;;;7.68;5.55;;;;;;;;;;6249603;22;19992;-75
2023/04/22 11:08:03;;;;;;;8.02;5.45;;;;;;;;;;6275448;22;19999;-75
2023/04/22 11:10:40;;;;;;;7.23;5.67;;;;;;;;;;6275465;22;20000;-75
2023/04/22 11:13:06;;;;;;;7.68;5.60;;;;;;;;;;6274252;22;19999;-75
2023/04/22 11:15:34;;;;;;;9.85;5.82;;;;;;;;;;6275396;22;20044;-76
2023/04/22 11:17:59;;;;;;;8.20;5.30;;;;;;;;;;6275278;22;20000;-75
2023/04/22 11:20:25;;;;;;;9.15;5.80;;;;;;;;;;6275302;22;19988;-75
2023/04/22 11:22:53;;;;;;;7.40;6.00;;;;;;;;;;6248736;23;20075;-75
2023/04/22 11:25:19;;;;;;;8.55;6.13;;;;;;;;;;6249171;22;20001;-75
2023/04/22 11:27:45;;;;;;;7.47;5.85;;;;;;;;;;6249124;22;20007;-76
2023/04/22 11:30:13;;;;;;;8.80;6.40;;;;;;;;;;6248521;22;19988;-75
2023/04/22 11:32:43;;;;;;;7.80;5.20;;;;;;;;;;6275202;22;20000;-76
2023/04/22 11:35:19;;;;;;;7.80;5.82;;;;;;;;;;6249193;22;20000;-75
2023/04/22 11:37:47;;;;;;;6.97;5.50;;;;;;;;;;6248503;22;20076;-75
2023/04/22 11:40:15;;;;;;;7.90;5.93;;;;;;;;;;6275327;22;20011;-76
2023/04/22 11:42:41;;;;;;;7.63;6.25;;;;;;;;;;6275177;22;20036;-75
2023/04/22 11:45:07;;;;;;;8.68;5.88;;;;;;;;;;6275018;22;19999;-75
2023/04/22 11:47:34;;;;;;;9.40;6.50;;;;;;;;;;6248781;23;20016;-75
2023/04/22 11:50:03;;;;;;;8.50;6.72;;;;;;;;;;6248917;23;20007;-75
2023/04/22 11:52:55;;;;;;;11.25;6.97;;;;;;;;;;6274184;22;20008;-75
2023/04/22 11:55:22;;;;;;;10.35;7.35;;;;;;;;;;6274585;22;20066;-75
2023/04/22 11:57:53;;;;;;;10.98;7.65;;;;;;;;;;6274970;22;20000;-75
2023/04/22 12:00:19;;;;;;;11.13;8.13;;;;;;;;;;6248890;23;19995;-75
2023/04/22 12:03:03;;;;;;;11.95;7.70;;;;;;;;;;6244624;23;19996;-74
2023/04/22 12:05:36;;;;;;;11.25;7.35;;;;;;;;;;6243455;22;20012;-74
2023/04/22 12:08:05;;;;;;;9.43;7.00;;;;;;;;;;6270523;22;20014;-75
2023/04/22 12:20:51;;;;;;;9.75;7.38;;;;;;;;;;6260974;22;20004;-75
2023/04/22 12:49:08;;;;;;;11.32;8.00;;;;;;;;;;6198937;22;20008;-76
2023/04/22 12:51:33;;;;;;;11.50;9.07;;;;;;;;;;6242418;23;20021;-76
2023/04/22 12:53:59;;;;;;;11.70;8.55;;;;;;;;;;6268168;22;20008;-76
2023/04/22 12:56:25;;;;;;;11.23;9.02;;;;;;;;;;6255524;23;20037;-76
2023/04/22 12:58:50;;;;;;;11.57;9.43;;;;;;;;;;6257868;23;20015;-76
2023/04/22 13:01:16;;;;;;;12.48;9.38;;;;;;;;;;6258041;23;20012;-76
2023/04/22 13:03:41;;;;;;;12.98;8.82;;;;;;;;;;6258437;23;20035;-76
2023/04/22 13:06:06;;;;;;;11.15;8.80;;;;;;;;;;6229867;23;20008;-76
2023/04/22 13:08:32;;;;;;;11.70;9.07;;;;;;;;;;6255234;23;20015;-75
2023/04/22 13:10:58;;;;;;;10.98;8.23;;;;;;;;;;6259116;23;20004;-75
2023/04/22 13:13:24;;;;;;;10.77;8.65;;;;;;;;;;6258991;23;20255;-75
2023/04/22 13:15:51;;;;;;;13.57;9.20;;;;;;;;;;6260129;23;20015;-76
2023/04/22 13:18:17;;;;;;;11.80;9.00;;;;;;;;;;6233808;23;20466;-75
2023/04/22 13:20:42;;;;;;;12.93;9.23;;;;;;;;;;6261102;23;20012;-75
2023/04/22 13:23:09;;;;;;;15.10;9.40;;;;;;;;;;6260964;23;19997;-75
2023/04/22 13:25:35;;;;;;;11.52;8.48;;;;;;;;;;6234262;22;20003;-75
2023/04/22 13:28:00;;;;;;;11.45;8.80;;;;;;;;;;6261115;22;20034;-76
2023/04/22 13:30:25;;;;;;;13.20;8.98;;;;;;;;;;6260669;22;20032;-75
2023/04/22 13:32:51;;;;;;;12.60;9.90;;;;;;;;;;6263139;22;19995;-75
2023/04/22 13:35:17;;;;;;;11.38;9.43;;;;;;;;;;6263509;22;20262;-75
2023/04/22 13:37:42;;;;;;;12.10;9.07;;;;;;;;;;6259220;22;19992;-75
2023/04/22 13:40:08;;;;;;;9.73;7.70;;;;;;;;;;6261004;23;19988;-76
2023/04/22 13:42:33;;;;;;;11.38;8.65;;;;;;;;;;6233920;23;20220;-76
2023/04/22 13:44:59;;;;;;;14.18;9.55;;;;;;;;;;6258687;23;20008;-76
2023/04/22 13:47:24;;;;;;;17.17;9.70;;;;;;;;;;6223684;23;19996;-76
2023/04/22 13:49:50;;;;;;;11.85;8.73;;;;;;;;;;6254808;22;20035;-76
2023/04/22 13:52:15;;;;;;;9.73;7.75;;;;;;;;;;6249964;23;20535;-76
2023/04/22 13:54:40;;;;;;;10.90;8.88;;;;;;;;;;6253526;23;20031;-75
2023/04/22 13:57:06;;;;;;;14.13;9.77;;;;;;;;;;6227164;23;20405;-76
2023/04/22 13:59:34;;;;;;;13.82;8.57;;;;;;;;;;6260426;23;19988;-77
2023/04/22 14:01:59;;;;;;;11.35;8.77;;;;;;;;;;6260888;23;20011;-76
2023/04/22 14:04:25;;;;;;;11.43;7.85;;;;;;;;;;6237503;23;20004;-76
2023/04/22 14:06:50;;;;;;;11.82;8.63;;;;;;;;;;6262616;23;19996;-77
2023/04/22 14:09:16;;;;;;;8.90;7.15;;;;;;;;;;6261692;23;20030;-75
2023/04/22 14:11:42;;;;;;;9.48;7.85;;;;;;;;;;6232295;23;20541;-74
2023/04/22 14:14:07;;;;;;;11.30;7.57;;;;;;;;;;6208858;23;20011;-72
2023/04/22 14:16:32;;;;;;;11.25;8.23;;;;;;;;;;6234379;23;20802;-74
2023/04/22 14:18:58;;;;;;;11.48;7.95;;;;;;;;;;6208181;23;20087;-76
2023/04/22 14:21:23;;;;;;;9.77;7.43;;;;;;;;;;6235508;23;20015;-74
2023/04/22 14:23:49;;;;;;;10.02;7.57;;;;;;;;;;6235539;23;20370;-74
2023/04/22 14:26:15;;;;;;;11.00;7.90;;;;;;;;;;6210070;23;20715;-75
2023/04/22 14:28:40;;;;;;;10.95;7.43;;;;;;;;;;6235848;23;20443;-73
2023/04/22 14:31:06;;;;;;;10.48;7.90;;;;;;;;;;6235801;23;20518;-77
2023/04/22 14:33:32;;;;;;;9.32;7.03;;;;;;;;;;6208690;23;20686;-73
2023/04/22 14:35:57;;;;;;;9.63;7.65;;;;;;;;;;6235543;23;20034;-75
2023/04/22 14:38:23;;;;;;;8.68;6.90;;;;;;;;;;6206829;23;20404;-77
2023/04/22 14:40:48;;;;;;;10.35;7.93;;;;;;;;;;6236366;23;20004;-73
2023/04/22 14:43:15;;;;;;;8.55;6.40;;;;;;;;;;6233864;23;20091;-74
2023/04/22 14:45:40;;;;;;;11.52;8.13;;;;;;;;;;6235254;23;20004;-75
2023/04/22 14:48:06;;;;;;;9.68;7.18;;;;;;;;;;6235440;23;20015;-74
2023/04/22 14:50:32;;;;;;;12.00;7.60;;;;;;;;;;6206828;23;20070;-74
2023/04/22 14:52:57;;;;;;;9.75;6.97;;;;;;;;;;6233097;23;20398;-75
2023/04/22 14:55:23;;;;;;;7.90;6.68;;;;;;;;;;6234734;23;20722;-73
2023/04/22 14:57:49;;;;;;;8.93;6.63;;;;;;;;;;6204284;23;20007;-74
2023/04/22 15:00:15;;;;;;;9.30;7.40;;;;;;;;;;6205515;23;20012;-75
2023/04/22 15:02:40;;;;;;;8.85;6.75;;;;;;;;;;6207204;23;20011;-74
2023/04/22 15:05:06;;;;;;;8.38;6.63;;;;;;;;;;6205175;23;20015;-74
2023/04/22 15:07:31;;;;;;;7.55;6.10;;;;;;;;;;6206021;23;20008;-75
2023/04/22 15:10:00;;;;;;;10.30;7.35;;;;;;;;;;6207129;23;20449;-76
2023/04/22 15:12:25;;;;;;;8.80;6.10;;;;;;;;;;6233991;23;20008;-73
2023/04/22 15:14:51;;;;;;;9.52;7.38;;;;;;;;;;6205156;23;20726;-75